Time,TemperatureF,DewpointF,PressureIn,WindDirection,WindDirectionDegrees,WindSpeedMPH,WindSpeedGustMPH,Humidity,HourlyPrecipIn,Conditions,Clouds,dailyrainin,SoftwareType,DateUTC
2013-06-23 00:07:00,55.0,53.0,29.89,SSW,196,0.0,0.0,91,0.00,,,0.00,weatherlink.com 1.10,2013-06-23 07:07:00,
2013-06-23 00:22:00,54.4,52.0,29.89,SSW,196,0.0,0.0,92,0.00,,,0.00,weatherlink.com 1.10,2013-06-23 07:22:00,
2013-06-23 00:37:00,55.7,54.0,29.89,WSW,240,0.0,1.0,93,0.00,,,0.00,weatherlink.com 1.10,2013-06-23 07:37:00,
2013-06-23 00:52:00,53.8,52.0,29.89,ENE,70,0.0,1.0,93,0.00,,,0.00,weatherlink.com 1.10,2013-06-23 07:52:00,
2013-06-23 01:07:00,53.6,52.0,29.89,SSW,200,0.0,2.0,93,0.00,,,0.00,weatherlink.com 1.10,2013-06-23 08:07:00,
2013-06-23 01:22:00,53.6,52.0,29.89,SSW,200,0.0,0.0,94,0.00,,,0.00,weatherlink.com 1.10,2013-06-23 08:22:00,
2013-06-23 01:37:00,53.7,52.0,29.89,NE,44,0.0,1.0,94,0.00,,,0.00,weatherlink.com 1.10,2013-06-23 08:37:00,
2013-06-23 01:52:00,53.8,52.0,29.88,ENE,63,0.0,0.0,94,0.00,,,0.00,weatherlink.com 1.10,2013-06-23 08:52:00,
2013-06-23 02:07:00,53.9,53.0,29.88,SSW,202,0.0,1.0,95,0.00,,,0.00,weatherlink.com 1.10,2013-06-23 09:07:00,
2013-06-23 02:22:00,54.1,53.0,29.88,SSW,202,0.0,0.0,95,0.00,,,0.00,weatherlink.com 1.10,2013-06-23 09:22:00,
2013-06-23 02:37:00,54.5,53.0,29.88,ENE,78,0.0,0.0,95,0.00,,,0.00,weatherlink.com 1.10,2013-06-23 09:37:00,
2013-06-23 02:52:00,54.6,53.0,29.88,ENE,78,0.0,0.0,95,0.00,,,0.00,weatherlink.com 1.10,2013-06-23 09:52:00,
2013-06-23 03:07:00,55.2,54.0,29.87,NE,51,0.0,0.0,95,0.00,,,0.00,weatherlink.com 1.10,2013-06-23 10:07:00,
2013-06-23 03:22:00,55.3,54.0,29.87,NE,51,0.0,0.0,95,0.00,,,0.00,weatherlink.com 1.10,2013-06-23 10:22:00,
2013-06-23 03:37:00,55.6,54.0,29.87,NE,40,0.0,0.0,95,0.00,,,0.00,weatherlink.com 1.10,2013-06-23 10:37:00,
2013-06-23 03:52:00,55.6,54.0,29.86,NE,40,0.0,0.0,95,0.00,,,0.00,weatherlink.com 1.10,2013-06-23 10:52:00,
2013-06-23 04:07:00,55.9,55.0,29.86,NE,40,0.0,0.0,96,0.00,,,0.00,weatherlink.com 1.10,2013-06-23 11:07:00,
2013-06-23 04:22:00,55.9,55.0,29.87,NE,40,0.0,0.0,95,0.00,,,0.00,weatherlink.com 1.10,2013-06-23 11:22:00,
2013-06-23 04:37:00,55.6,54.0,29.87,NE,40,0.0,0.0,95,0.00,,,0.00,weatherlink.com 1.10,2013-06-23 11:37:00,
2013-06-23 04:52:00,56.2,55.0,29.87,SSE,160,0.0,3.0,96,0.00,,,0.00,weatherlink.com 1.10,2013-06-23 11:52:00,
2013-06-23 05:07:00,56.8,56.0,29.86,East,90,0.0,0.0,96,0.00,,,0.00,weatherlink.com 1.10,2013-06-23 12:07:00,
2013-06-23 05:22:00,56.9,56.0,29.86,SSE,157,0.0,0.0,96,0.00,,,0.00,weatherlink.com 1.10,2013-06-23 12:22:00,
2013-06-23 05:37:00,57.3,56.0,29.86,South,173,0.0,2.0,96,0.00,,,0.00,weatherlink.com 1.10,2013-06-23 12:37:00,
2013-06-23 05:52:00,57.4,56.0,29.86,South,183,1.0,1.0,96,0.00,,,0.00,weatherlink.com 1.10,2013-06-23 12:52:00,
2013-06-23 06:07:00,57.4,56.0,29.86,SW,221,0.0,1.0,96,0.00,,,0.00,weatherlink.com 1.10,2013-06-23 13:07:00,
2013-06-23 06:22:00,57.5,56.0,29.87,SSW,198,0.0,2.0,96,0.00,,,0.00,weatherlink.com 1.10,2013-06-23 13:22:00,
2013-06-23 06:37:00,57.5,56.0,29.87,NE,42,0.0,0.0,96,0.00,,,0.00,weatherlink.com 1.10,2013-06-23 13:37:00,
2013-06-23 06:52:00,56.2,55.0,29.86,SW,217,0.0,3.0,95,0.00,,,0.00,weatherlink.com 1.10,2013-06-23 13:52:00,
2013-06-23 07:07:00,54.3,52.0,29.86,North,355,0.0,4.0,93,0.00,,,0.00,weatherlink.com 1.10,2013-06-23 14:07:00,
2013-06-23 07:22:00,53.6,52.0,29.86,NW,306,5.0,6.0,94,0.00,,,0.00,weatherlink.com 1.10,2013-06-23 14:22:00,
2013-06-23 07:37:00,54.2,52.0,29.87,SW,215,6.0,7.0,93,0.00,,,0.00,weatherlink.com 1.10,2013-06-23 14:37:00,
2013-06-23 07:53:00,53.1,52.0,29.87,SSE,149,2.0,4.0,96,0.00,,,0.00,weatherlink.com 1.10,2013-06-23 14:53:00,
2013-06-23 08:08:00,54.2,53.0,29.86,NE,35,0.0,1.0,96,0.00,,,0.00,weatherlink.com 1.10,2013-06-23 15:08:00,
2013-06-23 08:23:00,55.5,54.0,29.86,SSW,205,0.0,0.0,96,0.00,,,0.00,weatherlink.com 1.10,2013-06-23 15:23:00,
2013-06-23 08:53:00,54.5,53.0,29.86,SSW,211,0.0,1.0,96,0.00,,,0.00,weatherlink.com 1.10,2013-06-23 15:53:00,
2013-06-23 09:08:00,55.2,54.0,29.87,SSW,199,0.0,5.0,97,0.00,,,0.00,weatherlink.com 1.10,2013-06-23 16:08:00,
2013-06-23 09:23:00,56.8,56.0,29.86,NNE,27,0.0,2.0,97,0.00,,,0.00,weatherlink.com 1.10,2013-06-23 16:23:00,
2013-06-23 09:38:00,56.9,55.0,29.86,SSW,194,2.0,6.0,94,0.00,,,0.00,weatherlink.com 1.10,2013-06-23 16:38:00,
2013-06-23 09:53:00,55.7,54.0,29.87,South,184,0.0,3.0,95,0.00,,,0.00,weatherlink.com 1.10,2013-06-23 16:53:00,
2013-06-23 10:08:00,55.2,54.0,29.87,SSW,207,0.0,3.0,96,0.00,,,0.00,weatherlink.com 1.10,2013-06-23 17:08:00,
2013-06-23 10:23:00,55.4,54.0,29.87,SSW,207,0.0,0.0,96,0.00,,,0.00,weatherlink.com 1.10,2013-06-23 17:23:00,
2013-06-23 10:38:00,56.2,55.0,29.87,SSW,207,0.0,0.0,97,0.00,,,0.00,weatherlink.com 1.10,2013-06-23 17:38:00,
2013-06-23 10:53:00,56.2,55.0,29.87,SSW,207,0.0,0.0,97,0.02,,,0.02,weatherlink.com 1.10,2013-06-23 17:53:00,
2013-06-23 11:08:00,56.4,55.0,29.87,SSW,208,2.0,3.0,96,0.04,,,0.04,weatherlink.com 1.10,2013-06-23 18:08:00,
2013-06-23 11:23:00,56.2,55.0,29.88,SSW,207,0.0,2.0,97,0.05,,,0.05,weatherlink.com 1.10,2013-06-23 18:23:00,
2013-06-23 11:38:00,57.3,57.0,29.87,SSW,207,0.0,0.0,97,0.06,,,0.06,weatherlink.com 1.10,2013-06-23 18:38:00,
2013-06-23 11:53:00,58.4,58.0,29.87,SW,231,2.0,3.0,97,0.05,,,0.07,weatherlink.com 1.10,2013-06-23 18:53:00,
2013-06-23 12:08:00,58.2,57.0,29.87,SSW,207,1.0,4.0,97,0.03,,,0.07,weatherlink.com 1.10,2013-06-23 19:08:00,
2013-06-23 12:23:00,58.4,58.0,29.87,SW,225,3.0,5.0,97,0.02,,,0.07,weatherlink.com 1.10,2013-06-23 19:23:00,
2013-06-23 12:38:00,58.3,58.0,29.87,SSW,209,4.0,5.0,97,0.01,,,0.07,weatherlink.com 1.10,2013-06-23 19:38:00,
2013-06-23 12:53:00,59.2,58.0,29.86,SW,214,3.0,5.0,97,0.00,,,0.07,weatherlink.com 1.10,2013-06-23 19:53:00,
2013-06-23 13:08:00,59.2,58.0,29.86,SW,223,6.0,7.0,97,0.00,,,0.07,weatherlink.com 1.10,2013-06-23 20:08:00,
2013-06-23 13:23:00,58.6,58.0,29.86,SW,225,5.0,7.0,97,0.00,,,0.07,weatherlink.com 1.10,2013-06-23 20:23:00,
2013-06-23 13:38:00,58.5,58.0,29.86,SW,222,5.0,6.0,97,0.00,,,0.07,weatherlink.com 1.10,2013-06-23 20:38:00,
2013-06-23 13:53:00,58.4,58.0,29.86,SSW,200,4.0,5.0,97,0.00,,,0.07,weatherlink.com 1.10,2013-06-23 20:53:00,
2013-06-23 14:08:00,58.8,58.0,29.86,SW,226,4.0,5.0,97,0.00,,,0.07,weatherlink.com 1.10,2013-06-23 21:08:00,
2013-06-23 14:23:00,59.3,59.0,29.85,SW,214,4.0,7.0,97,0.00,,,0.07,weatherlink.com 1.10,2013-06-23 21:23:00,
2013-06-23 14:38:00,59.1,58.0,29.85,SW,221,4.0,7.0,97,0.00,,,0.07,weatherlink.com 1.10,2013-06-23 21:38:00,
2013-06-23 14:53:00,58.8,58.0,29.85,SW,224,4.0,7.0,97,0.00,,,0.07,weatherlink.com 1.10,2013-06-23 21:53:00,
2013-06-23 15:08:00,58.4,58.0,29.85,SW,219,5.0,8.0,97,0.00,,,0.07,weatherlink.com 1.10,2013-06-23 22:08:00,
2013-06-23 15:23:00,57.8,57.0,29.85,SW,227,6.0,7.0,97,0.00,,,0.07,weatherlink.com 1.10,2013-06-23 22:23:00,
2013-06-23 15:38:00,58.1,57.0,29.84,SW,232,3.0,7.0,97,0.00,,,0.07,weatherlink.com 1.10,2013-06-23 22:38:00,
2013-06-23 15:53:00,57.2,56.0,29.86,WSW,239,4.0,6.0,96,0.00,,,0.07,weatherlink.com 1.10,2013-06-23 22:53:00,
2013-06-23 16:08:00,57.0,56.0,29.85,SW,229,4.0,5.0,97,0.00,,,0.07,weatherlink.com 1.10,2013-06-23 23:08:00,
2013-06-23 16:23:00,57.4,57.0,29.86,SW,215,3.0,7.0,97,0.00,,,0.07,weatherlink.com 1.10,2013-06-23 23:23:00,
2013-06-23 16:38:00,56.9,56.0,29.86,SSW,205,3.0,6.0,97,0.00,,,0.07,weatherlink.com 1.10,2013-06-23 23:38:00,
2013-06-23 16:53:00,57.1,56.0,29.85,SW,221,3.0,5.0,97,0.00,,,0.07,weatherlink.com 1.10,2013-06-23 23:53:00,
2013-06-23 17:08:00,56.4,56.0,29.85,South,188,3.0,5.0,97,0.00,,,0.07,weatherlink.com 1.10,2013-06-24 00:08:00,
2013-06-23 17:23:00,55.5,54.0,29.85,SSW,208,2.0,5.0,96,0.00,,,0.07,weatherlink.com 1.10,2013-06-24 00:23:00,
2013-06-23 17:38:00,55.2,54.0,29.85,SSW,211,2.0,3.0,97,0.00,,,0.07,weatherlink.com 1.10,2013-06-24 00:38:00,
2013-06-23 17:53:00,55.2,54.0,29.85,SW,223,0.0,3.0,97,0.00,,,0.07,weatherlink.com 1.10,2013-06-24 00:53:00,
2013-06-23 18:08:00,55.5,55.0,29.84,SW,222,2.0,3.0,97,0.00,,,0.07,weatherlink.com 1.10,2013-06-24 01:08:00,
2013-06-23 18:23:00,55.1,54.0,29.84,SSW,212,2.0,3.0,97,0.00,,,0.07,weatherlink.com 1.10,2013-06-24 01:23:00,
2013-06-23 18:38:00,55.0,54.0,29.84,SW,221,1.0,3.0,97,0.00,,,0.07,weatherlink.com 1.10,2013-06-24 01:38:00,
2013-06-23 18:53:00,55.1,54.0,29.83,SW,221,0.0,0.0,97,0.00,,,0.07,weatherlink.com 1.10,2013-06-24 01:53:00,
2013-06-23 19:08:00,56.0,56.0,29.82,SW,229,0.0,0.0,98,0.00,,,0.07,weatherlink.com 1.10,2013-06-24 02:08:00,
2013-06-23 19:23:00,55.8,55.0,29.83,SW,228,1.0,2.0,97,0.00,,,0.07,weatherlink.com 1.10,2013-06-24 02:23:00,
2013-06-23 19:38:00,55.1,54.0,29.84,SSW,201,1.0,2.0,97,0.00,,,0.07,weatherlink.com 1.10,2013-06-24 02:38:00,
2013-06-23 19:53:00,54.5,54.0,29.85,SSW,202,1.0,1.0,97,0.00,,,0.07,weatherlink.com 1.10,2013-06-24 02:53:00,
2013-06-23 20:08:00,53.3,53.0,29.84,SSW,202,0.0,2.0,97,0.00,,,0.07,weatherlink.com 1.10,2013-06-24 03:08:00,
2013-06-23 20:23:00,53.5,53.0,29.84,SSW,202,0.0,0.0,97,0.00,,,0.07,weatherlink.com 1.10,2013-06-24 03:23:00,
2013-06-23 20:38:00,53.8,53.0,29.84,SSW,202,0.0,0.0,97,0.00,,,0.07,weatherlink.com 1.10,2013-06-24 03:38:00,
2013-06-23 20:53:00,54.1,54.0,29.84,SSW,202,0.0,0.0,98,0.00,,,0.07,weatherlink.com 1.10,2013-06-24 03:53:00,
2013-06-23 21:08:00,54.4,54.0,29.84,SSW,202,0.0,0.0,98,0.00,,,0.07,weatherlink.com 1.10,2013-06-24 04:08:00,
2013-06-23 21:23:00,53.9,53.0,29.84,SSW,202,0.0,0.0,97,0.00,,,0.07,weatherlink.com 1.10,2013-06-24 04:23:00,
2013-06-23 21:38:00,53.5,53.0,29.84,SSW,202,0.0,0.0,97,0.00,,,0.07,weatherlink.com 1.10,2013-06-24 04:38:00,
2013-06-23 21:53:00,53.5,53.0,29.84,SSW,202,0.0,0.0,98,0.01,,,0.08,weatherlink.com 1.10,2013-06-24 04:53:00,
2013-06-23 22:08:00,53.6,53.0,29.85,SSW,202,0.0,0.0,98,0.01,,,0.08,weatherlink.com 1.10,2013-06-24 05:08:00,
2013-06-23 22:23:00,53.6,53.0,29.84,SSW,202,0.0,0.0,98,0.01,,,0.08,weatherlink.com 1.10,2013-06-24 05:23:00,
2013-06-23 22:38:00,53.8,53.0,29.84,SSW,202,0.0,0.0,98,0.01,,,0.08,weatherlink.com 1.10,2013-06-24 05:38:00,
2013-06-23 22:53:00,54.0,54.0,29.84,SSW,202,0.0,0.0,98,0.00,,,0.08,weatherlink.com 1.10,2013-06-24 05:53:00,
2013-06-23 23:08:00,54.0,54.0,29.84,SSW,202,0.0,0.0,98,0.00,,,0.08,weatherlink.com 1.10,2013-06-24 06:08:00,
2013-06-23 23:23:00,54.0,54.0,29.84,SSW,202,0.0,0.0,98,0.00,,,0.08,weatherlink.com 1.10,2013-06-24 06:23:00,
2013-06-23 23:38:00,53.8,53.0,29.83,SSW,202,0.0,0.0,97,0.00,,,0.08,weatherlink.com 1.10,2013-06-24 06:38:00,